createdAt,value
2019-04-20T00:08:55.658Z,7.78
2019-04-20T00:19:57.754Z,7.56
2019-04-20T00:31:22.486Z,7.29
2019-04-20T00:42:11.212Z,7.23
2019-04-20T00:53:13.357Z,6.96
2019-04-20T01:04:32.800Z,6.86
2019-04-20T01:15:16.955Z,6.86
2019-04-20T01:26:20.522Z,6.78
2019-04-20T01:37:36.452Z,6.62
2019-04-20T01:48:30.493Z,6.57
2019-04-20T01:59:46.990Z,6.50
2019-04-20T02:10:45.970Z,6.32
2019-04-20T02:21:55.634Z,6.18
2019-04-20T02:44:35.820Z,6.07
2019-04-20T03:06:19.495Z,5.88
2019-04-20T03:17:32.642Z,5.80
2019-04-20T03:28:40.131Z,5.80
2019-04-20T03:39:40.461Z,5.86
2019-04-20T03:50:56.453Z,5.47
2019-04-20T04:02:22.882Z,5.42
2019-04-20T04:12:54.714Z,5.42
2019-04-20T04:24:09.570Z,5.23
2019-04-20T04:35:14.134Z,5.34
2019-04-20T04:46:07.934Z,5.52
2019-04-20T04:57:11.613Z,5.81
2019-04-20T05:08:21.512Z,6.21
2019-04-20T05:19:37.095Z,6.68
2019-04-20T05:30:39.554Z,7.03
2019-04-20T05:41:58.195Z,7.47
2019-04-20T05:53:11.632Z,8.07
2019-04-20T06:04:18.821Z,8.94
2019-04-20T06:15:15.368Z,9.72
2019-04-20T06:26:43.467Z,10.19
2019-04-20T06:37:39.046Z,11.02
2019-04-20T06:48:45.831Z,11.90
2019-04-20T06:59:47.404Z,12.99
2019-04-20T07:10:58.363Z,13.61
2019-04-20T07:22:12.296Z,14.16
2019-04-20T07:33:10.493Z,15.06
2019-04-20T07:44:18.681Z,15.30
2019-04-20T07:55:42.243Z,15.67
2019-04-20T08:06:12.523Z,16.03
2019-04-20T08:17:40.371Z,16.41
2019-04-20T08:28:31.471Z,16.78
2019-04-20T08:39:51.071Z,17.20
2019-04-20T08:50:52.040Z,17.38
2019-04-20T09:01:39.415Z,17.88
2019-04-20T09:12:33.228Z,17.87
2019-04-20T09:23:13.223Z,18.37
2019-04-20T09:34:00.416Z,18.53
2019-04-20T09:44:31.454Z,18.65
2019-04-20T09:55:23.308Z,18.87
2019-04-20T10:05:56.559Z,19.25
2019-04-20T10:16:37.973Z,18.94
2019-04-20T10:27:22.086Z,19.25
2019-04-20T10:38:05.389Z,19.69
2019-04-20T10:48:51.141Z,20.38
2019-04-20T10:59:33.950Z,20.13
2019-04-20T11:10:21.927Z,21.20
2019-04-20T11:21:03.668Z,21.53
2019-04-20T11:31:51.097Z,21.67
2019-04-20T11:42:29.891Z,23.18
2019-04-20T11:53:09.057Z,23.02
2019-04-20T12:04:01.732Z,23.17
2019-04-20T12:14:34.650Z,23.31
2019-04-20T12:25:16.101Z,22.44
2019-04-20T12:36:00.428Z,23.02
2019-04-20T12:46:43.732Z,24.26
2019-04-20T12:57:27.148Z,23.92
2019-04-20T13:08:13.766Z,24.50
2019-04-20T13:18:57.649Z,26.61
2019-04-20T13:29:40.582Z,27.04
2019-04-20T13:40:25.757Z,28.51
2019-04-20T13:51:07.867Z,27.20
2019-04-20T14:01:46.697Z,28.43
2019-04-20T14:12:36.730Z,28.19
2019-04-20T14:23:17.043Z,28.90
2019-04-20T14:33:57.133Z,27.08
2019-04-20T14:44:39.562Z,28.11
2019-04-20T14:55:21.164Z,27.64
2019-04-20T15:06:05.503Z,26.77
2019-04-20T15:16:35.450Z,25.13
2019-04-20T15:27:12.235Z,24.80
2019-04-20T15:37:51.478Z,24.64
2019-04-20T15:48:37.750Z,25.16
2019-04-20T15:59:08.429Z,23.34
2019-04-20T16:09:42.222Z,21.63
2019-04-20T16:20:22.985Z,20.89
2019-04-20T16:31:07.967Z,20.69
2019-04-20T16:41:50.723Z,20.23
2019-04-20T16:52:29.123Z,19.73
2019-04-20T17:03:07.087Z,19.69
2019-04-20T17:13:50.055Z,19.53
2019-04-20T17:24:27.487Z,19.06
2019-04-20T17:35:37.869Z,18.06
2019-04-20T17:46:35.731Z,16.66
2019-04-20T17:57:26.133Z,15.85
2019-04-20T18:08:47.058Z,15.02
2019-04-20T18:19:29.179Z,14.71
2019-04-20T18:30:39.388Z,14.29
2019-04-20T18:41:41.568Z,13.70
2019-04-20T18:52:33.718Z,13.37
2019-04-20T19:03:40.170Z,13.14
2019-04-20T19:14:45.203Z,12.63
2019-04-20T19:25:42.368Z,12.13
2019-04-20T19:36:59.147Z,11.79
2019-04-20T19:47:59.463Z,11.24
2019-04-20T19:59:02.866Z,11.13
2019-04-20T20:09:52.509Z,10.62
2019-04-20T20:20:55.351Z,10.58
2019-04-20T20:31:58.182Z,10.18
2019-04-20T20:42:53.082Z,10.13
2019-04-20T20:53:59.020Z,9.97
2019-04-20T21:04:47.914Z,9.72
2019-04-20T21:15:57.589Z,9.52
2019-04-20T21:26:51.836Z,9.16
2019-04-20T21:38:01.647Z,9.29
2019-04-20T21:49:09.754Z,9.05
2019-04-20T22:00:07.071Z,8.69
2019-04-20T22:11:03.963Z,8.66
2019-04-20T22:22:16.158Z,8.39
2019-04-20T22:33:17.506Z,8.51
2019-04-20T22:44:19.396Z,8.17
2019-04-20T22:55:43.165Z,8.15
2019-04-20T23:06:31.927Z,7.93
2019-04-20T23:17:35.920Z,7.86
2019-04-20T23:28:40.088Z,7.48
2019-04-20T23:39:48.818Z,7.35
2019-04-20T23:51:06.816Z,7.37
